CSN495 ZSPD-EHAM
Flight info
| Callsign | CSN495 |
|---|---|
| Flight time | N/A |
| Altitude | 27600 |
| Route | PIK91D PIKAS G330 PIMOL A593 DALIM W157 AGOGU/K0907S0920 W157 BEKDO/K0911S0890 W157 VYK G212 SOTMU/K0907S0920 B339 POLHO Y345 UDA A575 DARNO/K0907F300 P982 TR/K0900F320 A308 ABK R104 BA R229 XV B228 LITUN N869 UNISO L870 UNKET/K0913F340 L870 RANVA/N0480F340 L870 RESMO DCT TODNA P863 DEREX DCT ETPIG DCT GORAX DCT BAGOS N850 ELSOB N125 BLUFA |
| Aircraft | B77L/H-SDE1E2E3FGHIJ2J3J4J5M1RWXY/LB1D1 |
Departure
| Time | N/A |
|---|---|
| Airport | Shanghai Pudong International Airport (ZSPD) |
Arrival
| Time | 2026-04-30 09:41 |
|---|---|
| Airport | Amsterdam Airport Schiphol (EHAM) |
| Time | Latitude | Longitude | Altitude | Speed | Heading |
|---|---|---|---|---|---|
| 2026-04-30 09:22 | 52.81554 | 6.27533 | 25476 ft | 467 kts | 235° |
| 2026-04-30 09:22 | 52.79688 | 6.23259 | 24788 ft | 450 kts | 233° |
| 2026-04-30 09:22 | 52.77843 | 6.19155 | 23858 ft | 442 kts | 233° |
| 2026-04-30 09:23 | 52.76030 | 6.15091 | 22852 ft | 437 kts | 233° |
| 2026-04-30 09:23 | 52.74259 | 6.11039 | 21746 ft | 435 kts | 234° |
| 2026-04-30 09:23 | 52.72514 | 6.06981 | 20610 ft | 433 kts | 234° |
| 2026-04-30 09:23 | 52.70789 | 6.02932 | 19448 ft | 431 kts | 234° |
| 2026-04-30 09:24 | 52.69072 | 5.98885 | 18264 ft | 429 kts | 234° |
| 2026-04-30 09:24 | 52.67378 | 5.94887 | 17485 ft | 417 kts | 234° |
| 2026-04-30 09:24 | 52.65719 | 5.90988 | 17018 ft | 414 kts | 233° |
| 2026-04-30 09:24 | 52.64071 | 5.87120 | 16499 ft | 412 kts | 233° |
| 2026-04-30 09:25 | 52.62428 | 5.83261 | 15996 ft | 409 kts | 233° |
| 2026-04-30 09:25 | 52.60800 | 5.79446 | 15496 ft | 407 kts | 233° |
| 2026-04-30 09:25 | 52.59192 | 5.75686 | 15271 ft | 396 kts | 233° |
| 2026-04-30 09:25 | 52.57645 | 5.72074 | 15102 ft | 385 kts | 233° |
| 2026-04-30 09:26 | 52.56124 | 5.68528 | 14931 ft | 374 kts | 233° |
| 2026-04-30 09:26 | 52.54644 | 5.65085 | 14764 ft | 364 kts | 233° |
| 2026-04-30 09:26 | 52.53202 | 5.61733 | 14588 ft | 354 kts | 233° |
| 2026-04-30 09:26 | 52.51774 | 5.58423 | 13979 ft | 359 kts | 233° |
| 2026-04-30 09:27 | 52.50364 | 5.55037 | 13733 ft | 354 kts | 236° |
| 2026-04-30 09:27 | 52.49050 | 5.51529 | 13753 ft | 372 kts | 237° |
| 2026-04-30 09:27 | 52.47698 | 5.47797 | 13775 ft | 385 kts | 238° |
| 2026-04-30 09:27 | 52.46330 | 5.44004 | 13598 ft | 391 kts | 238° |
| 2026-04-30 09:28 | 52.44939 | 5.40172 | 13339 ft | 390 kts | 238° |
| 2026-04-30 09:28 | 52.43548 | 5.36366 | 13080 ft | 387 kts | 237° |
| 2026-04-30 09:28 | 52.42198 | 5.32695 | 12848 ft | 385 kts | 237° |
| 2026-04-30 09:28 | 52.40818 | 5.28965 | 12599 ft | 382 kts | 237° |
| 2026-04-30 09:29 | 52.39440 | 5.25245 | 12357 ft | 380 kts | 237° |
| 2026-04-30 09:29 | 52.38073 | 5.21562 | 12119 ft | 378 kts | 237° |
| 2026-04-30 09:29 | 52.36710 | 5.17900 | 11875 ft | 376 kts | 237° |
| 2026-04-30 09:29 | 52.35346 | 5.14236 | 11638 ft | 375 kts | 237° |
| 2026-04-30 09:30 | 52.34034 | 5.10577 | 11372 ft | 369 kts | 243° |
| 2026-04-30 09:30 | 52.33365 | 5.06529 | 11138 ft | 373 kts | 267° |
| 2026-04-30 09:30 | 52.33394 | 5.02290 | 10943 ft | 376 kts | 271° |
| 2026-04-30 09:30 | 52.33411 | 4.98017 | 10694 ft | 380 kts | 269° |
| 2026-04-30 09:31 | 52.33382 | 4.93688 | 10490 ft | 376 kts | 269° |
| 2026-04-30 09:31 | 52.33355 | 4.90893 | 10445 ft | 372 kts | 268° |
| 2026-04-30 09:31 | 52.33317 | 4.86864 | 10405 ft | 369 kts | 268° |
| 2026-04-30 09:31 | 52.33269 | 4.81302 | 10409 ft | 372 kts | 269° |
| 2026-04-30 09:32 | 52.33234 | 4.77085 | 10377 ft | 362 kts | 268° |
| 2026-04-30 09:32 | 52.33201 | 4.73117 | 10169 ft | 337 kts | 268° |
| 2026-04-30 09:32 | 52.33167 | 4.69414 | 9844 ft | 315 kts | 268° |
| 2026-04-30 09:32 | 52.33132 | 4.65884 | 9176 ft | 307 kts | 268° |
| 2026-04-30 09:33 | 52.33108 | 4.63582 | 8621 ft | 305 kts | 267° |
| 2026-04-30 09:33 | 52.33070 | 4.60106 | 7776 ft | 304 kts | 268° |
| 2026-04-30 09:33 | 52.33034 | 4.56607 | 7243 ft | 308 kts | 267° |
| 2026-04-30 09:33 | 52.32914 | 4.53170 | 6856 ft | 299 kts | 255° |
| 2026-04-30 09:34 | 52.32219 | 4.50020 | 6348 ft | 294 kts | 240° |
| 2026-04-30 09:34 | 52.31297 | 4.47045 | 5971 ft | 291 kts | 238° |
| 2026-04-30 09:34 | 52.30358 | 4.44141 | 5573 ft | 288 kts | 237° |
| 2026-04-30 09:34 | 52.29237 | 4.41604 | 5073 ft | 266 kts | 214° |
| 2026-04-30 09:35 | 52.27686 | 4.40275 | 4490 ft | 241 kts | 184° |
| 2026-04-30 09:35 | 52.26063 | 4.40057 | 3864 ft | 230 kts | 174° |
| 2026-04-30 09:35 | 52.24460 | 4.40115 | 3611 ft | 233 kts | 168° |
| 2026-04-30 09:35 | 52.22955 | 4.40915 | 3423 ft | 225 kts | 140° |
| 2026-04-30 09:36 | 52.22001 | 4.42773 | 3210 ft | 210 kts | 115° |
| 2026-04-30 09:36 | 52.21424 | 4.44912 | 3037 ft | 202 kts | 112° |
| 2026-04-30 09:36 | 52.20883 | 4.47000 | 3006 ft | 200 kts | 112° |
| 2026-04-30 09:36 | 52.20420 | 4.49124 | 2996 ft | 196 kts | 97° |
| 2026-04-30 09:37 | 52.20654 | 4.51251 | 3028 ft | 192 kts | 71° |
| 2026-04-30 09:37 | 52.21221 | 4.53242 | 2827 ft | 195 kts | 69° |
| 2026-04-30 09:37 | 52.21819 | 4.55204 | 2573 ft | 190 kts | 65° |
| 2026-04-30 09:37 | 52.22482 | 4.56992 | 2358 ft | 183 kts | 62° |
| 2026-04-30 09:38 | 52.23159 | 4.58746 | 2127 ft | 181 kts | 62° |
| 2026-04-30 09:38 | 52.23818 | 4.60509 | 1872 ft | 182 kts | 61° |
| 2026-04-30 09:38 | 52.24477 | 4.62217 | 1635 ft | 171 kts | 61° |
| 2026-04-30 09:38 | 52.25081 | 4.63787 | 1424 ft | 158 kts | 61° |
| 2026-04-30 09:39 | 52.25650 | 4.65264 | 1216 ft | 149 kts | 61° |
| 2026-04-30 09:39 | 52.26177 | 4.66632 | 1016 ft | 135 kts | 61° |
| 2026-04-30 09:39 | 52.26671 | 4.67914 | 832 ft | 135 kts | 61° |
| 2026-04-30 09:39 | 52.27171 | 4.69218 | 673 ft | 139 kts | 61° |
| 2026-04-30 09:40 | 52.27690 | 4.70557 | 466 ft | 140 kts | 60° |
| 2026-04-30 09:40 | 52.28204 | 4.71883 | 273 ft | 137 kts | 60° |
| 2026-04-30 09:40 | 52.28717 | 4.73218 | 99 ft | 140 kts | 60° |
| 2026-04-30 09:40 | 52.29236 | 4.74565 | 7 ft | 133 kts | 60° |
| 2026-04-30 09:41 | 52.29659 | 4.75670 | 3 ft | 94 kts | 57° |
| 2026-04-30 09:41 | 52.29927 | 4.76368 | 1 ft | 51 kts | 58° |
| 2026-04-30 09:41 | 52.30073 | 4.76746 | 3 ft | 40 kts | 58° |
| 2026-04-30 09:41 | 52.30210 | 4.77107 | 2 ft | 38 kts | 57° |
| 2026-04-30 09:42 | 52.30322 | 4.77428 | 2 ft | 19 kts | 86° |
| 2026-04-30 09:42 | 52.30240 | 4.77538 | 3 ft | 17 kts | 185° |
| 2026-04-30 09:42 | 52.30139 | 4.77441 | 3 ft | 17 kts | 227° |
| 2026-04-30 09:42 | 52.30074 | 4.77282 | 3 ft | 17 kts | 239° |
| 2026-04-30 09:43 | 52.30010 | 4.77117 | 3 ft | 17 kts | 237° |
| 2026-04-30 09:43 | 52.29945 | 4.76954 | 4 ft | 17 kts | 235° |
| 2026-04-30 09:43 | 52.29862 | 4.76814 | 4 ft | 17 kts | 228° |
| 2026-04-30 09:43 | 52.29795 | 4.76653 | 3 ft | 17 kts | 237° |
| 2026-04-30 09:44 | 52.29731 | 4.76488 | 3 ft | 17 kts | 238° |
| 2026-04-30 09:44 | 52.29669 | 4.76322 | 3 ft | 17 kts | 239° |
| 2026-04-30 09:44 | 52.29607 | 4.76156 | 4 ft | 17 kts | 238° |
| 2026-04-30 09:44 | 52.29544 | 4.75992 | 5 ft | 17 kts | 238° |
| 2026-04-30 09:45 | 52.29498 | 4.75813 | 3 ft | 17 kts | 251° |
| 2026-04-30 09:45 | 52.29441 | 4.75642 | 4 ft | 17 kts | 230° |
| 2026-04-30 09:45 | 52.29356 | 4.75507 | 5 ft | 17 kts | 236° |
| 2026-04-30 09:45 | 52.29293 | 4.75342 | 3 ft | 17 kts | 238° |
| 2026-04-30 09:46 | 52.29250 | 4.75228 | 3 ft | 6 kts | 239° |
| 2026-04-30 09:46 | 52.29210 | 4.75219 | 3 ft | 6 kts | 155° |
| 2026-04-30 09:46 | 52.29173 | 4.75259 | 3 ft | 6 kts | 147° |
| 2026-04-30 09:46 | 52.29156 | 4.75276 | 3 ft | 2 kts | 147° |
| 2026-04-30 09:47 | 52.29153 | 4.75279 | 4 ft | 0 kts | 148° |
| 2026-04-30 09:47 | 52.29153 | 4.75280 | 3 ft | 0 kts | 148° |